Time;durP1;ratioP1;P1;durP2;ratioP2;P2;SDS_P1;SDS_P2;PMS_P1;PMS_P2;Temp;Humidity;BMP_temperature;BMP_pressure;BME280_temperature;BME280_humidity;BME280_pressure;Samples;Min_cycle;Max_cycle;Signal;HPM_P1;HPM_P2
2022/03/02 00:01:37;;;;;;;4.73;3.80;;;21.50;52.90;;;;;;5084611;28;20436;-81
2022/03/02 00:04:08;;;;;;;6.93;3.73;;;21.50;53.00;;;;;;5100966;28;20404;-81
2022/03/02 00:06:53;;;;;;;5.00;3.87;;;21.50;53.00;;;;;;5102913;28;20435;-81
2022/03/02 00:09:20;;;;;;;5.83;3.53;;;21.50;53.00;;;;;;5100817;28;20408;-81
2022/03/02 00:11:49;;;;;;;7.33;4.40;;;21.50;53.00;;;;;;5094650;28;20442;-81
2022/03/02 00:14:18;;;;;;;5.13;3.67;;;21.40;52.90;;;;;;5117177;28;20531;-81
2022/03/02 00:16:44;;;;;;;6.00;3.47;;;21.40;52.90;;;;;;5097847;28;20424;-81
2022/03/02 00:19:11;;;;;;;5.53;3.60;;;21.40;52.90;;;;;;5097952;28;20403;-81
2022/03/02 00:21:43;;;;;;;4.20;3.77;;;21.50;52.90;;;;;;5098396;28;20250;-81
2022/03/02 00:24:09;;;;;;;5.73;4.10;;;21.40;52.90;;;;;;5081278;28;20416;-80
2022/03/02 00:26:35;;;;;;;6.47;4.50;;;21.40;52.90;;;;;;5080808;28;20441;-80
2022/03/02 00:29:17;;;;;;;5.70;3.70;;;21.50;53.00;;;;;;5116562;28;20439;-80
2022/03/02 00:31:48;;;;;;;7.03;3.40;;;21.40;52.90;;;;;;5097343;28;20419;-80
2022/03/02 00:37:42;;;;;;;5.33;3.63;;;21.40;52.90;;;;;;5116492;28;20410;-81
2022/03/02 00:40:19;;;;;;;4.30;3.70;;;21.40;52.90;;;;;;5077368;28;20455;-81
2022/03/02 00:43:06;;;;;;;4.90;4.33;;;21.40;52.90;;;;;;5082070;28;20450;-81
2022/03/02 00:46:03;;;;;;;4.87;3.23;;;21.40;52.90;;;;;;5099419;28;20412;-81
2022/03/02 00:48:30;;;;;;;3.93;3.43;;;21.40;52.90;;;;;;5097672;28;20408;-81
2022/03/02 00:50:59;;;;;;;5.50;3.60;;;21.40;52.90;;;;;;5115665;28;20415;-81
2022/03/02 00:53:39;;;;;;;5.20;3.63;;;21.40;53.00;;;;;;5093760;28;20416;-80
2022/03/02 00:56:14;;;;;;;5.30;3.43;;;21.40;52.90;;;;;;5113677;28;20415;-80
2022/03/02 01:02:06;;;;;;;5.43;3.90;;;21.40;53.00;;;;;;5079499;28;20419;-81
2022/03/02 01:04:36;;;;;;;5.83;4.20;;;21.40;53.00;;;;;;5079915;28;20424;-81
2022/03/02 01:07:06;;;;;;;4.03;3.60;;;21.40;53.00;;;;;;5114116;28;20441;-81
2022/03/02 01:09:49;;;;;;;5.17;3.83;;;21.30;52.90;;;;;;5101635;28;20397;-81
2022/03/02 01:12:18;;;;;;;3.90;3.47;;;21.40;52.90;;;;;;5061962;28;20419;-80
2022/03/02 01:14:44;;;;;;;5.80;3.57;;;21.30;52.90;;;;;;5060486;28;20423;-80
2022/03/02 01:17:10;;;;;;;6.53;4.30;;;21.40;53.00;;;;;;5060243;28;20500;-80
2022/03/02 01:19:37;;;;;;;5.30;3.50;;;21.40;53.00;;;;;;5109966;28;20404;-80
2022/03/02 01:22:17;;;;;;;6.10;3.90;;;21.30;52.90;;;;;;5115592;28;20388;-81
2022/03/02 01:24:45;;;;;;;5.57;3.77;;;21.40;52.90;;;;;;5098697;28;20487;-81
2022/03/02 01:27:14;;;;;;;4.67;3.43;;;21.40;52.90;;;;;;5115932;28;20419;-81
2022/03/02 01:29:42;;;;;;;4.67;3.40;;;21.30;52.90;;;;;;5081945;28;20416;-81
2022/03/02 01:32:13;;;;;;;4.70;3.90;;;21.30;52.80;;;;;;5114428;28;20433;-81
2022/03/02 01:34:53;;;;;;;6.43;3.30;;;21.30;52.90;;;;;;5116753;28;20858;-81
2022/03/02 01:37:26;;;;;;;5.77;3.70;;;21.40;52.90;;;;;;5098678;28;20411;-81
2022/03/02 01:40:04;;;;;;;4.70;3.73;;;21.30;52.80;;;;;;5113488;28;20459;-81
2022/03/02 01:42:37;;;;;;;4.30;3.40;;;21.30;52.80;;;;;;5098253;28;20415;-80
2022/03/02 01:45:11;;;;;;;5.90;3.87;;;21.30;52.80;;;;;;5115792;28;20403;-80
2022/03/02 01:47:38;;;;;;;5.00;3.37;;;21.40;52.90;;;;;;5098836;28;20437;-80
2022/03/02 01:50:16;;;;;;;3.43;3.07;;;21.30;52.90;;;;;;5098495;28;20423;-81
2022/03/02 01:52:54;;;;;;;5.60;4.03;;;21.30;52.80;;;;;;5081547;28;20438;-81
2022/03/02 01:55:21;;;;;;;4.53;3.93;;;21.30;52.90;;;;;;5096657;28;20443;-81
2022/03/02 01:57:52;;;;;;;4.37;3.50;;;21.30;52.80;;;;;;5081141;28;20465;-81
2022/03/02 02:00:24;;;;;;;4.60;3.37;;;21.30;52.80;;;;;;5079197;28;20456;-81
2022/03/02 02:02:56;;;;;;;5.37;4.03;;;21.30;52.80;;;;;;5078710;28;20393;-81
2022/03/02 02:05:25;;;;;;;4.13;3.20;;;21.30;52.80;;;;;;5095127;28;20408;-81
2022/03/02 02:07:54;;;;;;;5.23;3.80;;;21.30;52.80;;;;;;5106978;28;20423;-81
2022/03/02 02:10:25;;;;;;;5.93;4.00;;;21.30;52.70;;;;;;5102515;28;20483;-81
2022/03/02 02:12:54;;;;;;;4.97;3.90;;;21.30;52.80;;;;;;5094851;28;20800;-81
2022/03/02 02:15:21;;;;;;;4.27;3.87;;;21.30;52.80;;;;;;5118164;28;20430;-81
2022/03/02 02:17:47;;;;;;;4.87;3.93;;;21.30;52.70;;;;;;5084477;28;20512;-81
2022/03/02 02:20:14;;;;;;;5.07;3.77;;;21.30;52.70;;;;;;5100734;28;20443;-80
2022/03/02 02:22:59;;;;;;;4.93;3.50;;;21.30;52.70;;;;;;5101648;28;20419;-81
2022/03/02 02:25:25;;;;;;;3.57;2.90;;;21.30;52.70;;;;;;5086716;28;20492;-81
2022/03/02 02:27:52;;;;;;;4.43;3.20;;;21.30;52.70;;;;;;5081055;28;20420;-81
2022/03/02 02:30:18;;;;;;;4.97;3.43;;;21.30;52.70;;;;;;5100389;28;20428;-81
2022/03/02 02:32:46;;;;;;;4.80;3.27;;;21.30;52.70;;;;;;5118809;28;20475;-81
2022/03/02 02:35:12;;;;;;;6.13;3.70;;;21.30;52.70;;;;;;5099529;28;20418;-81
2022/03/02 02:37:40;;;;;;;3.67;2.90;;;21.30;52.70;;;;;;5112038;28;20438;-81
2022/03/02 02:40:16;;;;;;;5.17;4.67;;;21.30;52.70;;;;;;5117987;28;20461;-81
2022/03/02 02:42:48;;;;;;;5.57;3.93;;;21.30;52.70;;;;;;5084877;28;20421;-81
2022/03/02 02:45:24;;;;;;;4.77;3.40;;;21.30;52.70;;;;;;5091175;28;20404;-81
2022/03/02 02:47:56;;;;;;;4.73;3.60;;;21.30;52.70;;;;;;5110578;28;20423;-81
2022/03/02 02:50:45;;;;;;;3.60;3.03;;;21.30;52.70;;;;;;5083098;28;20409;-81
2022/03/02 02:53:12;;;;;;;4.53;3.20;;;21.30;52.70;;;;;;5108501;28;20416;-81
2022/03/02 02:55:45;;;;;;;3.50;3.07;;;21.30;52.70;;;;;;5093276;28;20411;-81
2022/03/02 02:58:14;;;;;;;4.70;3.20;;;21.30;52.80;;;;;;5113694;28;20447;-80
2022/03/02 03:00:49;;;;;;;4.20;3.17;;;21.30;52.80;;;;;;5108935;28;20459;-81
2022/03/02 03:03:23;;;;;;;5.00;3.73;;;21.20;52.70;;;;;;5093269;28;20423;-81
2022/03/02 03:05:54;;;;;;;4.37;3.40;;;21.30;52.80;;;;;;5079329;28;20475;-81
2022/03/02 03:08:30;;;;;;;5.10;3.60;;;21.20;52.70;;;;;;5091051;28;20428;-81
2022/03/02 03:10:57;;;;;;;3.90;2.97;;;21.20;52.70;;;;;;5105535;28;20407;-81
2022/03/02 03:13:23;;;;;;;3.50;3.10;;;21.20;52.70;;;;;;5090358;28;20415;-81
2022/03/02 03:15:52;;;;;;;4.77;3.30;;;21.20;52.70;;;;;;5118448;28;20412;-81
2022/03/02 03:18:18;;;;;;;4.70;3.47;;;21.20;52.70;;;;;;5081516;28;20432;-81
2022/03/02 03:20:46;;;;;;;4.50;3.00;;;21.20;52.70;;;;;;5126444;28;20452;-81
2022/03/02 03:23:16;;;;;;;5.47;3.80;;;21.20;52.70;;;;;;5125009;28;20414;-81
2022/03/02 03:28:41;;;;;;;4.50;3.93;;;21.20;52.70;;;;;;5089386;28;20431;-81
2022/03/02 03:31:08;;;;;;;4.47;3.37;;;21.20;52.70;;;;;;5090797;28;20438;-81
2022/03/02 03:33:35;;;;;;;6.37;3.70;;;21.20;52.70;;;;;;5081292;28;20420;-81
2022/03/02 03:36:05;;;;;;;5.33;3.33;;;21.20;52.70;;;;;;5085403;28;20413;-81
2022/03/02 03:38:32;;;;;;;3.73;3.00;;;21.20;52.70;;;;;;5099519;28;20517;-81
2022/03/02 03:41:04;;;;;;;4.00;3.47;;;21.20;52.70;;;;;;5093349;28;20456;-81
2022/03/02 03:43:34;;;;;;;5.00;3.00;;;21.20;52.60;;;;;;5075140;28;20462;-80
2022/03/02 03:46:13;;;;;;;3.10;2.80;;;21.20;52.60;;;;;;5068170;28;20435;-81
2022/03/02 03:48:42;;;;;;;3.73;2.80;;;21.20;52.60;;;;;;5102215;28;20419;-81
2022/03/02 03:51:35;;;;;;;4.17;3.30;;;21.20;52.60;;;;;;5096241;28;20416;-80
2022/03/02 03:54:10;;;;;;;4.70;3.30;;;21.20;52.60;;;;;;5102132;28;20419;-80
2022/03/02 03:56:37;;;;;;;3.97;3.30;;;21.20;52.60;;;;;;5091433;28;20420;-81
2022/03/02 03:59:12;;;;;;;6.57;3.70;;;21.20;52.60;;;;;;5100004;28;20432;-81
2022/03/02 04:01:39;;;;;;;4.70;3.50;;;21.20;52.50;;;;;;5092935;28;20455;-81
2022/03/02 04:04:07;;;;;;;3.77;2.97;;;21.20;52.50;;;;;;5089854;28;20420;-81
2022/03/02 04:06:35;;;;;;;5.33;3.87;;;21.20;52.50;;;;;;5111692;28;20411;-81
2022/03/02 04:09:07;;;;;;;4.07;2.90;;;21.20;52.60;;;;;;5098460;28;20411;-81
2022/03/02 04:14:50;;;;;;;3.63;3.03;;;21.20;52.50;;;;;;5099612;28;20399;-80
2022/03/02 04:17:17;;;;;;;3.10;2.80;;;21.20;52.50;;;;;;5091254;28;20419;-80
2022/03/02 04:19:43;;;;;;;4.53;3.40;;;21.10;52.50;;;;;;5101666;28;20469;-80
2022/03/02 04:22:09;;;;;;;5.07;3.30;;;21.20;52.60;;;;;;5095511;28;20408;-81
2022/03/02 04:24:39;;;;;;;4.30;3.07;;;21.20;52.60;;;;;;5081308;28;20428;-81
2022/03/02 04:27:08;;;;;;;3.67;3.27;;;21.20;52.60;;;;;;5090536;28;20462;-81
2022/03/02 04:29:36;;;;;;;4.20;2.50;;;21.20;52.60;;;;;;5093466;28;20416;-81
2022/03/02 04:32:04;;;;;;;4.03;2.90;;;21.20;52.60;;;;;;5033160;28;20451;-82
2022/03/02 04:34:37;;;;;;;5.40;3.00;;;21.20;52.50;;;;;;5054759;28;20445;-82
2022/03/02 04:37:06;;;;;;;4.67;3.30;;;21.20;52.60;;;;;;5039344;28;20426;-81
2022/03/02 04:39:45;;;;;;;3.20;2.90;;;21.20;52.60;;;;;;5053884;28;20428;-80
2022/03/02 04:42:19;;;;;;;3.40;3.10;;;21.20;52.60;;;;;;5033976;28;20391;-80
2022/03/02 04:44:45;;;;;;;5.03;3.50;;;21.20;52.60;;;;;;5050956;28;20901;-81
2022/03/02 04:47:11;;;;;;;5.00;3.00;;;21.10;52.50;;;;;;5049810;28;20414;-81
2022/03/02 04:49:37;;;;;;;4.23;3.37;;;21.20;52.60;;;;;;5025698;28;20419;-81
2022/03/02 04:52:07;;;;;;;3.27;2.90;;;21.20;52.60;;;;;;5050613;28;20660;-81
2022/03/02 04:57:20;;;;;;;3.80;3.30;;;21.20;52.60;;;;;;5061490;28;20443;-81
2022/03/02 04:59:50;;;;;;;3.30;2.90;;;21.20;52.60;;;;;;5054836;28;20465;-81
2022/03/02 05:02:19;;;;;;;3.37;3.07;;;21.10;52.50;;;;;;5067354;28;20414;-81
2022/03/02 05:04:45;;;;;;;3.70;2.80;;;21.20;52.60;;;;;;5038625;28;20493;-82
2022/03/02 05:07:11;;;;;;;4.13;3.23;;;21.10;52.50;;;;;;5036851;28;20425;-82
2022/03/02 05:09:44;;;;;;;3.97;2.93;;;21.10;52.50;;;;;;5052812;28;20429;-81
2022/03/02 05:12:10;;;;;;;3.43;3.13;;;21.10;52.50;;;;;;5080921;28;20456;-82
2022/03/02 05:14:38;;;;;;;3.40;3.10;;;21.10;52.60;;;;;;5115836;28;20420;-82
2022/03/02 05:17:05;;;;;;;4.57;3.03;;;21.10;52.50;;;;;;5081380;28;20419;-82
2022/03/02 05:19:39;;;;;;;3.27;2.60;;;21.10;52.50;;;;;;5104793;28;20413;-82
2022/03/02 05:22:05;;;;;;;2.93;2.60;;;21.10;52.50;;;;;;5095586;28;20396;-82
2022/03/02 05:24:31;;;;;;;4.03;3.00;;;21.10;52.50;;;;;;5097132;28;20441;-82
2022/03/02 05:27:02;;;;;;;4.43;3.20;;;21.10;52.60;;;;;;5111933;28;20173;-82
2022/03/02 05:33:02;;;;;;;3.33;2.90;;;21.10;52.50;;;;;;5105277;28;20501;-81
2022/03/02 05:35:30;;;;;;;4.30;3.13;;;21.00;52.50;;;;;;5106265;28;20435;-81
2022/03/02 05:37:58;;;;;;;3.87;3.33;;;21.10;52.60;;;;;;5084969;28;20495;-81
2022/03/02 05:40:26;;;;;;;4.10;3.10;;;21.10;52.60;;;;;;5108461;28;20459;-81
2022/03/02 05:42:55;;;;;;;2.93;2.70;;;21.10;52.50;;;;;;5095566;28;20444;-81
2022/03/02 05:45:22;;;;;;;3.27;2.63;;;21.10;52.50;;;;;;5076849;28;20409;-81
2022/03/02 05:47:48;;;;;;;3.97;3.13;;;21.10;52.50;;;;;;5087500;28;20413;-81
2022/03/02 05:50:15;;;;;;;3.60;2.77;;;21.10;52.50;;;;;;5092312;28;20413;-81
2022/03/02 05:52:43;;;;;;;3.07;2.77;;;21.10;52.50;;;;;;5091843;28;20480;-81
2022/03/02 05:55:12;;;;;;;3.83;2.80;;;21.00;52.40;;;;;;5111441;28;20456;-81
2022/03/02 05:57:38;;;;;;;4.63;3.33;;;21.10;52.50;;;;;;5094702;28;20502;-81
2022/03/02 06:00:07;;;;;;;3.80;3.43;;;21.10;52.50;;;;;;5095059;28;20466;-81
2022/03/02 06:02:34;;;;;;;4.43;3.30;;;21.10;52.50;;;;;;5095956;28;20178;-80
2022/03/02 06:05:00;;;;;;;3.03;2.63;;;21.10;52.50;;;;;;5094063;28;20416;-80
2022/03/02 06:07:26;;;;;;;4.03;3.03;;;21.10;52.60;;;;;;5093848;28;20427;-80
2022/03/02 06:09:52;;;;;;;3.10;2.77;;;21.10;52.60;;;;;;5110883;28;20411;-80
2022/03/02 06:12:20;;;;;;;3.43;2.70;;;21.10;52.60;;;;;;5111738;28;20438;-80
2022/03/02 06:14:49;;;;;;;3.73;2.93;;;21.10;52.60;;;;;;5074902;28;20443;-80
2022/03/02 06:17:15;;;;;;;3.60;3.10;;;21.10;52.60;;;;;;5109907;28;20415;-80
2022/03/02 06:19:41;;;;;;;4.23;3.53;;;21.10;52.60;;;;;;5093077;28;20446;-80
2022/03/02 06:22:17;;;;;;;4.57;3.87;;;21.10;52.60;;;;;;5110980;28;20839;-80
2022/03/02 06:24:44;;;;;;;3.43;2.90;;;21.10;52.60;;;;;;5093333;28;20419;-82
2022/03/02 06:27:10;;;;;;;3.63;3.20;;;21.10;52.60;;;;;;5091520;28;20425;-81
2022/03/02 06:29:36;;;;;;;3.33;3.00;;;21.10;52.60;;;;;;5093196;28;20420;-81
2022/03/02 06:32:05;;;;;;;3.60;2.97;;;21.10;52.70;;;;;;5108731;28;20411;-81
2022/03/02 06:34:33;;;;;;;4.80;3.47;;;21.10;52.60;;;;;;5109613;28;20428;-81
2022/03/02 06:36:59;;;;;;;3.80;2.47;;;21.10;52.70;;;;;;5076839;28;20420;-81
2022/03/02 06:39:30;;;;;;;3.60;2.70;;;21.20;52.80;;;;;;5095658;28;20423;-81
2022/03/02 06:42:24;;;;;;;3.63;2.80;;;21.20;52.80;;;;;;5095889;28;20423;-81
2022/03/02 06:44:55;;;;;;;2.60;2.40;;;21.20;52.80;;;;;;5108101;28;20411;-81
2022/03/02 06:47:37;;;;;;;3.30;3.00;;;21.20;52.80;;;;;;5078458;28;20429;-81
2022/03/02 06:50:12;;;;;;;3.80;3.07;;;21.20;52.80;;;;;;5093944;28;20416;-81
2022/03/02 06:52:43;;;;;;;2.67;2.47;;;21.20;52.80;;;;;;5065539;28;20428;-81
2022/03/02 06:55:17;;;;;;;3.73;2.57;;;21.20;52.80;;;;;;5101221;28;20471;-81
2022/03/02 06:58:01;;;;;;;3.80;2.83;;;21.20;52.80;;;;;;5083428;28;20446;-81
2022/03/02 07:00:30;;;;;;;3.30;2.80;;;21.20;52.80;;;;;;5097023;28;20521;-81
2022/03/02 07:03:04;;;;;;;3.80;3.13;;;21.20;52.80;;;;;;5082883;28;20427;-82
2022/03/02 07:05:30;;;;;;;3.00;2.63;;;21.20;52.80;;;;;;5092262;28;20467;-82
2022/03/02 07:08:17;;;;;;;3.73;2.70;;;21.30;52.80;;;;;;5094639;28;20407;-82
2022/03/02 07:10:44;;;;;;;2.33;2.13;;;21.30;52.80;;;;;;5091785;28;20453;-82
2022/03/02 07:13:11;;;;;;;3.10;2.73;;;21.30;52.80;;;;;;5116448;28;20446;-82
2022/03/02 07:15:38;;;;;;;3.50;2.67;;;21.30;52.80;;;;;;5091354;28;20449;-82
2022/03/02 07:18:07;;;;;;;3.40;2.83;;;21.30;52.80;;;;;;5084266;28;20417;-83
2022/03/02 07:20:41;;;;;;;3.30;3.00;;;21.30;52.70;;;;;;5097382;28;20460;-82
2022/03/02 07:23:20;;;;;;;3.77;2.20;;;21.30;52.70;;;;;;5080870;28;20417;-83
2022/03/02 07:25:55;;;;;;;5.40;2.67;;;21.40;52.80;;;;;;5080755;28;20393;-82
2022/03/02 07:28:30;;;;;;;3.27;2.70;;;21.40;52.80;;;;;;5098776;28;20422;-82
2022/03/02 07:31:00;;;;;;;4.00;3.10;;;21.40;52.80;;;;;;5080916;28;20412;-82
2022/03/02 07:33:35;;;;;;;4.50;3.40;;;21.40;52.80;;;;;;5079475;28;20443;-82
2022/03/02 07:36:01;;;;;;;2.93;2.60;;;21.40;52.80;;;;;;5100483;28;20414;-81
2022/03/02 07:38:32;;;;;;;2.90;2.30;;;21.40;52.80;;;;;;5100904;28;20425;-81
2022/03/02 07:41:12;;;;;;;3.17;2.87;;;21.40;52.80;;;;;;5066185;28;20244;-81
2022/03/02 07:43:40;;;;;;;3.23;2.60;;;21.40;52.80;;;;;;5100127;28;20433;-82
2022/03/02 07:46:16;;;;;;;3.63;2.80;;;21.40;52.80;;;;;;5079357;28;20413;-82
2022/03/02 07:48:52;;;;;;;3.47;3.03;;;21.40;52.80;;;;;;5063976;28;20420;-82
2022/03/02 07:51:22;;;;;;;3.20;2.67;;;21.40;52.80;;;;;;5105759;28;20427;-82
2022/03/02 07:53:51;;;;;;;2.93;2.60;;;21.40;52.80;;;;;;5061067;28;20416;-82
2022/03/02 07:56:21;;;;;;;3.80;2.90;;;21.40;52.80;;;;;;5097483;28;20415;-81
2022/03/02 07:59:05;;;;;;;3.57;3.27;;;21.40;52.80;;;;;;5097258;28;20403;-82
2022/03/02 08:01:37;;;;;;;4.07;3.07;;;21.50;52.90;;;;;;5079924;28;20460;-81
2022/03/02 08:04:08;;;;;;;3.20;2.90;;;21.50;52.90;;;;;;5080343;28;20383;-82
2022/03/02 08:06:45;;;;;;;3.13;2.80;;;21.50;52.90;;;;;;5097339;28;20417;-82
2022/03/02 08:09:13;;;;;;;3.33;3.07;;;21.50;52.90;;;;;;5080223;28;20437;-84
2022/03/02 08:11:42;;;;;;;4.13;2.87;;;21.50;52.90;;;;;;5096174;28;20505;-81
2022/03/02 08:14:14;;;;;;;4.27;3.07;;;21.50;52.80;;;;;;5070453;28;20498;-83
2022/03/02 08:16:44;;;;;;;3.20;2.87;;;21.50;52.80;;;;;;5117304;28;20396;-84
2022/03/02 08:19:11;;;;;;;3.93;3.10;;;21.50;52.80;;;;;;5092486;28;20436;-82
2022/03/02 08:21:39;;;;;;;4.17;2.83;;;21.50;52.80;;;;;;5112939;28;20519;-86
2022/03/02 08:24:08;;;;;;;4.67;2.73;;;21.50;52.80;;;;;;5092370;28;20443;-83
2022/03/02 08:26:40;;;;;;;5.03;3.10;;;21.50;52.80;;;;;;5094373;28;20454;-83
2022/03/02 08:29:08;;;;;;;3.77;2.87;;;21.50;52.80;;;;;;5094787;28;20396;-83
2022/03/02 08:31:37;;;;;;;5.93;2.80;;;21.50;52.80;;;;;;5093965;28;20423;-83
2022/03/02 08:34:06;;;;;;;3.90;2.83;;;21.50;52.80;;;;;;5076615;28;20417;-83
2022/03/02 08:36:34;;;;;;;3.93;2.77;;;21.50;52.80;;;;;;5112270;28;20427;-83
2022/03/02 08:39:10;;;;;;;3.37;2.67;;;21.50;52.80;;;;;;5087350;28;20412;-83
2022/03/02 08:41:39;;;;;;;3.43;2.80;;;21.50;52.80;;;;;;5076748;28;20505;-83
2022/03/02 08:44:07;;;;;;;4.47;3.00;;;21.50;52.80;;;;;;5093255;28;20412;-83
2022/03/02 08:46:34;;;;;;;4.37;3.30;;;21.50;52.90;;;;;;5094345;28;20408;-83
2022/03/02 08:48:59;;;;;;;3.07;2.77;;;21.50;52.80;;;;;;5076493;28;20420;-83
2022/03/02 08:51:27;;;;;;;2.80;2.50;;;21.50;52.90;;;;;;5102234;28;20411;-82
2022/03/02 08:53:58;;;;;;;3.30;2.93;;;21.50;52.90;;;;;;5094217;28;20193;-83
2022/03/02 08:56:25;;;;;;;3.87;3.00;;;21.50;52.90;;;;;;5093095;28;20495;-83
2022/03/02 08:58:53;;;;;;;4.07;3.10;;;21.50;52.90;;;;;;5110161;28;20403;-87
2022/03/02 09:01:20;;;;;;;3.50;2.70;;;21.50;52.90;;;;;;5090159;28;20557;-85
2022/03/02 09:03:51;;;;;;;4.03;3.50;;;21.50;52.90;;;;;;5092462;28;20419;-87
2022/03/02 09:06:19;;;;;;;4.60;3.40;;;21.50;52.90;;;;;;5093551;28;20403;-85
2022/03/02 09:08:45;;;;;;;3.83;2.80;;;21.50;52.90;;;;;;5092476;28;20408;-86
2022/03/02 09:15:30;;;;;;;5.70;3.17;;;21.50;52.90;;;;;;5110108;28;20396;-86
2022/03/02 09:17:56;;;;;;;3.33;3.03;;;21.50;52.90;;;;;;5093188;28;20466;-85
2022/03/02 09:20:25;;;;;;;3.93;2.97;;;21.50;53.00;;;;;;5089620;28;20487;-85
2022/03/02 09:22:52;;;;;;;3.60;2.73;;;21.50;53.00;;;;;;5080509;28;20462;-85
2022/03/02 09:25:19;;;;;;;3.77;3.20;;;21.50;53.00;;;;;;5086737;28;20421;-86
2022/03/02 09:27:46;;;;;;;3.43;3.13;;;21.50;53.00;;;;;;5095320;28;20477;-86
2022/03/02 09:30:12;;;;;;;3.00;2.70;;;21.60;53.10;;;;;;5086989;28;20420;-87
2022/03/02 09:32:42;;;;;;;3.20;2.90;;;21.50;53.00;;;;;;5085703;28;20483;-87
2022/03/02 09:35:13;;;;;;;9.40;3.90;;;21.50;53.00;;;;;;5079984;28;20806;-91
2022/03/02 09:37:42;;;;;;;4.77;4.17;;;21.50;53.00;;;;;;5075310;28;20439;-88
2022/03/02 09:40:21;;;;;;;5.13;4.60;;;21.60;52.90;;;;;;5069885;28;20813;-85
2022/03/02 09:42:56;;;;;;;6.60;4.90;;;21.50;52.80;;;;;;5072060;28;20424;-86
2022/03/02 09:45:26;;;;;;;6.10;5.10;;;21.50;52.70;;;;;;5072865;28;20415;-85
2022/03/02 09:48:03;;;;;;;7.47;4.63;;;21.50;52.60;;;;;;5071455;28;20432;-85
2022/03/02 09:50:38;;;;;;;5.20;4.30;;;21.50;52.60;;;;;;5090102;28;20412;-86
2022/03/02 09:53:14;;;;;;;5.30;4.80;;;21.50;52.70;;;;;;5089685;28;20392;-84
2022/03/02 09:55:41;;;;;;;5.43;4.10;;;21.50;52.70;;;;;;5071338;28;20412;-86
2022/03/02 09:58:10;;;;;;;4.70;3.80;;;21.50;52.70;;;;;;5089127;28;20439;-86
2022/03/02 10:00:36;;;;;;;4.80;3.57;;;21.50;52.70;;;;;;5071567;28;20472;-86
2022/03/02 10:03:02;;;;;;;5.00;4.13;;;21.50;52.70;;;;;;5090518;28;20909;-86
2022/03/02 10:05:31;;;;;;;5.43;3.90;;;21.50;52.70;;;;;;5072373;28;20179;-86
2022/03/02 10:08:02;;;;;;;5.37;3.87;;;21.50;53.30;;;;;;5072064;28;20174;-86
2022/03/02 10:10:31;;;;;;;4.40;3.63;;;21.50;52.70;;;;;;5102942;28;20446;-86
2022/03/02 10:13:01;;;;;;;7.43;4.03;;;21.40;52.70;;;;;;5092300;28;20442;-86
2022/03/02 10:15:27;;;;;;;5.47;3.57;;;21.50;52.70;;;;;;5092669;28;20557;-86
2022/03/02 10:18:00;;;;;;;4.93;3.70;;;21.40;52.70;;;;;;5109735;28;20465;-86
2022/03/02 10:20:31;;;;;;;4.97;3.67;;;21.40;52.70;;;;;;5091421;28;20467;-86
2022/03/02 10:23:36;;;;;;;5.03;3.33;;;21.40;52.70;;;;;;5093973;28;20400;-86
2022/03/02 10:26:18;;;;;;;4.63;3.80;;;21.40;52.70;;;;;;5111322;28;20411;-86
2022/03/02 10:29:03;;;;;;;4.13;3.20;;;21.40;52.70;;;;;;5095911;28;20399;-86
2022/03/02 10:31:41;;;;;;;4.30;3.80;;;21.40;52.70;;;;;;5113393;28;20865;-85
2022/03/02 10:34:25;;;;;;;5.07;4.30;;;21.40;52.80;;;;;;5114250;28;20393;-86
2022/03/02 10:37:13;;;;;;;4.07;3.60;;;21.40;52.80;;;;;;5114685;28;20403;-86
2022/03/02 10:39:51;;;;;;;5.80;3.80;;;21.40;52.80;;;;;;5113994;28;20403;-85
2022/03/02 10:42:29;;;;;;;4.00;3.00;;;21.40;52.80;;;;;;5114473;28;20414;-86
2022/03/02 10:45:08;;;;;;;4.13;3.20;;;21.40;52.80;;;;;;5114191;28;20384;-86
2022/03/02 10:47:41;;;;;;;4.90;4.07;;;21.40;52.80;;;;;;5095463;28;20402;-85
2022/03/02 10:50:09;;;;;;;3.77;3.33;;;21.40;52.80;;;;;;5113562;28;20798;-85
2022/03/02 10:52:39;;;;;;;4.20;3.70;;;21.40;52.90;;;;;;5113493;28;20757;-86
2022/03/02 10:55:09;;;;;;;4.80;3.30;;;21.40;52.80;;;;;;5113676;28;20431;-86
2022/03/02 10:57:35;;;;;;;3.57;3.27;;;21.40;52.80;;;;;;5113571;28;20418;-86
2022/03/02 11:00:13;;;;;;;3.90;3.47;;;21.40;52.80;;;;;;5113098;28;20491;-86
2022/03/02 11:02:46;;;;;;;3.63;3.23;;;21.40;52.80;;;;;;5112081;28;20392;-86
2022/03/02 11:05:16;;;;;;;4.00;3.60;;;21.40;52.80;;;;;;5113547;28;20411;-86
2022/03/02 11:07:42;;;;;;;4.40;3.50;;;21.40;52.80;;;;;;5095212;28;20510;-86
2022/03/02 11:10:14;;;;;;;5.47;3.40;;;21.40;52.80;;;;;;5093829;28;20861;-86
2022/03/02 11:12:42;;;;;;;3.90;3.33;;;21.40;52.90;;;;;;5094372;28;20503;-86
2022/03/02 11:15:09;;;;;;;3.97;3.57;;;21.40;52.80;;;;;;5094434;28;20420;-85
2022/03/02 11:17:54;;;;;;;3.83;2.80;;;21.40;52.80;;;;;;5094381;28;20450;-85
2022/03/02 11:20:21;;;;;;;4.07;3.60;;;21.40;52.80;;;;;;5113889;28;20527;-86
2022/03/02 11:23:00;;;;;;;4.83;3.77;;;21.40;52.90;;;;;;5096850;28;20412;-86
2022/03/02 11:25:49;;;;;;;5.27;3.40;;;21.40;52.90;;;;;;5078719;28;20424;-86
2022/03/02 11:28:18;;;;;;;5.13;3.70;;;21.40;52.90;;;;;;5092891;28;20397;-86
2022/03/02 11:30:51;;;;;;;4.63;3.57;;;21.40;52.90;;;;;;5091527;28;20470;-86
2022/03/02 11:33:27;;;;;;;3.73;3.33;;;21.40;52.90;;;;;;5092229;28;20468;-87
2022/03/02 11:36:02;;;;;;;3.10;2.73;;;21.40;52.90;;;;;;5094420;28;20434;-86
2022/03/02 11:38:34;;;;;;;3.77;3.23;;;21.40;52.90;;;;;;5113454;28;20454;-86
2022/03/02 11:41:01;;;;;;;3.57;3.23;;;21.40;52.90;;;;;;5087022;28;20460;-86
2022/03/02 11:43:29;;;;;;;3.67;3.37;;;21.40;52.90;;;;;;5074589;28;20420;-86
2022/03/02 11:46:02;;;;;;;3.87;3.50;;;21.40;52.90;;;;;;5093735;28;20449;-85
2022/03/02 11:48:41;;;;;;;3.43;3.10;;;21.40;52.90;;;;;;5082953;28;20417;-85
2022/03/02 11:51:09;;;;;;;4.13;3.73;;;21.40;52.90;;;;;;5074210;28;20809;-85
2022/03/02 11:53:39;;;;;;;4.13;3.60;;;21.40;52.90;;;;;;5091126;28;20489;-85
2022/03/02 11:56:08;;;;;;;3.30;3.00;;;21.40;52.90;;;;;;5099771;28;20411;-85
2022/03/02 11:58:54;;;;;;;3.33;3.03;;;21.40;52.90;;;;;;5112394;28;20404;-85
2022/03/02 12:01:20;;;;;;;3.67;3.07;;;21.40;52.90;;;;;;5112790;28;20447;-85
2022/03/02 12:04:01;;;;;;;3.40;3.10;;;21.40;52.90;;;;;;5094127;28;20416;-86
2022/03/02 12:06:28;;;;;;;3.93;3.30;;;21.40;52.90;;;;;;5113379;28;20392;-85
2022/03/02 12:08:56;;;;;;;3.30;3.00;;;21.40;52.90;;;;;;5095261;28;20419;-85
2022/03/02 12:11:34;;;;;;;3.50;3.00;;;21.40;52.90;;;;;;5112300;28;20415;-85
2022/03/02 12:14:09;;;;;;;4.80;3.60;;;21.40;52.90;;;;;;5094793;28;20407;-86
2022/03/02 12:16:50;;;;;;;5.30;3.40;;;21.40;52.90;;;;;;5094661;28;20421;-85
2022/03/02 12:19:27;;;;;;;4.40;3.30;;;21.40;52.90;;;;;;5112440;28;20408;-85
2022/03/02 12:22:02;;;;;;;4.77;3.23;;;21.40;52.90;;;;;;5093367;28;20455;-85
2022/03/02 12:24:32;;;;;;;4.13;3.00;;;21.40;52.90;;;;;;5094121;28;20427;-85
2022/03/02 12:27:06;;;;;;;3.43;2.83;;;21.40;52.90;;;;;;5093038;28;20437;-86
2022/03/02 12:29:41;;;;;;;3.50;2.70;;;21.40;52.90;;;;;;5093686;28;20415;-85
2022/03/02 12:32:18;;;;;;;3.40;2.90;;;21.40;52.90;;;;;;5077399;28;20433;-85
2022/03/02 12:34:50;;;;;;;3.90;3.20;;;21.40;52.90;;;;;;5078132;28;20458;-85
2022/03/02 12:37:18;;;;;;;4.00;3.10;;;21.30;52.90;;;;;;5093168;28;20419;-84
2022/03/02 12:39:45;;;;;;;4.57;3.20;;;21.30;52.90;;;;;;5093894;28;20412;-85
2022/03/02 12:42:11;;;;;;;4.00;2.90;;;21.30;52.80;;;;;;5092436;28;20411;-85
2022/03/02 12:44:40;;;;;;;3.77;3.00;;;21.30;52.90;;;;;;5108934;28;20474;-85
2022/03/02 12:47:12;;;;;;;3.27;2.60;;;21.30;52.80;;;;;;5076354;28;20435;-85
2022/03/02 12:49:41;;;;;;;3.87;3.17;;;21.40;52.90;;;;;;5093228;28;20411;-85
2022/03/02 12:52:08;;;;;;;4.30;3.90;;;21.30;52.80;;;;;;5092640;28;20952;-85
2022/03/02 12:54:36;;;;;;;3.20;2.90;;;21.40;52.90;;;;;;5093426;28;20412;-85
2022/03/02 12:57:04;;;;;;;3.30;3.00;;;21.40;52.90;;;;;;5111978;28;20468;-85
2022/03/02 12:59:30;;;;;;;3.30;2.83;;;21.40;52.90;;;;;;5112751;28;20430;-84
2022/03/02 13:01:58;;;;;;;3.47;2.67;;;21.40;52.90;;;;;;5093402;28;20472;-85
2022/03/02 13:04:51;;;;;;;3.77;2.87;;;21.40;52.90;;;;;;5094449;28;20450;-85
2022/03/02 13:07:56;;;;;;;5.10;3.33;;;21.40;52.90;;;;;;5093049;28;20416;-85
2022/03/02 13:10:24;;;;;;;3.20;2.90;;;21.40;52.90;;;;;;5093492;28;20404;-85
2022/03/02 13:12:58;;;;;;;2.80;2.60;;;21.30;52.90;;;;;;5112238;28;20430;-86
2022/03/02 13:15:30;;;;;;;3.30;2.90;;;21.40;53.00;;;;;;5093982;28;20442;-85
2022/03/02 13:18:12;;;;;;;3.53;3.20;;;21.40;52.90;;;;;;5110827;28;20414;-86
2022/03/02 13:20:47;;;;;;;3.23;2.93;;;21.40;52.90;;;;;;5092175;28;20483;-85
2022/03/02 13:23:22;;;;;;;2.80;2.53;;;21.30;52.90;;;;;;5110962;28;20391;-86
2022/03/02 13:25:58;;;;;;;2.73;2.43;;;21.40;53.00;;;;;;5090270;28;20943;-85
2022/03/02 13:28:28;;;;;;;3.60;3.03;;;21.40;53.00;;;;;;5079741;28;20811;-85
2022/03/02 13:31:16;;;;;;;3.70;2.70;;;21.30;52.90;;;;;;5099872;28;20420;-85
2022/03/02 13:33:57;;;;;;;2.70;2.50;;;21.40;53.00;;;;;;5080391;28;20419;-85